Avondale Estates, Georgia
Current Conditions -  °F | °C
As of 4:53 AM on Sunday 26 Oct 2014 (Local Time) from KPDK Reporting Station
Clear Clear  
Wind Chill: 59°   Ceiling: Unl
Heat Index: 59°   Visibility: 7mi
Dew Point: 54°   Wind: 5mph
Humidity: 83%   Direction: 310°NW
Pressure: 29.99"   Gusts: NA
Location:  33.77°N, 84.27°W
Report Text: KPDK 260853Z 31004KT 7SM CLR 15/12 A2999 RMK AO2 SLP145 T01500122 58006
Loading
Personal Weather Stations






























Interactive Weather Map New forecast layout! Learn more

10-Day Weather Forecast

Advertisements
Track Severe Weather on mobile